Time;durP1;ratioP1;P1;durP2;ratioP2;P2;SDS_P1;SDS_P2;PMS_P1;PMS_P2;Temp;Humidity;BMP_temperature;BMP_pressure;BME280_temperature;BME280_humidity;BME280_pressure;Samples;Min_cycle;Max_cycle;Signal;HPM_P1;HPM_P2
2021/08/06 00:01:42;;;;;;;6.80;6.07;;;17.80;67.90;;;;;;5051748;28;20424;-74
2021/08/06 00:04:07;;;;;;;6.67;5.80;;;17.90;68.10;;;;;;5051286;28;20394;-72
2021/08/06 00:06:33;;;;;;;7.65;5.70;;;18.00;67.10;;;;;;5035688;28;20386;-74
2021/08/06 00:08:59;;;;;;;8.70;6.05;;;17.90;66.90;;;;;;5031940;28;20803;-75
2021/08/06 00:11:27;;;;;;;6.83;6.13;;;17.90;67.20;;;;;;5030135;28;20444;-75
2021/08/06 00:13:53;;;;;;;6.97;5.90;;;17.90;67.10;;;;;;5031565;28;20865;-74
2021/08/06 00:16:19;;;;;;;6.97;6.20;;;17.90;68.10;;;;;;5031056;28;20530;-74
2021/08/06 00:18:44;;;;;;;9.02;5.88;;;17.90;67.50;;;;;;5030756;28;20383;-73
2021/08/06 00:21:10;;;;;;;5.82;5.28;;;17.90;67.20;;;;;;5030990;28;20375;-74
2021/08/06 00:23:35;;;;;;;6.40;5.83;;;17.90;67.90;;;;;;5030960;28;20383;-75
2021/08/06 00:26:01;;;;;;;8.70;5.78;;;17.90;67.30;;;;;;5032494;28;20406;-74
2021/08/06 00:28:26;;;;;;;7.82;6.30;;;17.90;66.90;;;;;;5030883;28;20390;-75
2021/08/06 00:30:52;;;;;;;6.40;5.80;;;17.90;66.90;;;;;;5030702;28;20398;-74
2021/08/06 00:33:18;;;;;;;6.27;5.77;;;17.90;67.40;;;;;;5030724;28;20391;-74
2021/08/06 00:35:43;;;;;;;6.15;5.65;;;17.90;67.50;;;;;;5032978;28;20387;-73
2021/08/06 00:38:09;;;;;;;8.20;6.30;;;17.90;67.40;;;;;;5047559;28;20847;-72
2021/08/06 00:40:34;;;;;;;6.80;6.00;;;17.90;67.20;;;;;;5049829;28;20379;-73
2021/08/06 00:43:00;;;;;;;10.55;6.32;;;17.90;67.60;;;;;;5034578;28;20379;-76
2021/08/06 00:45:26;;;;;;;7.72;5.72;;;17.80;68.00;;;;;;5032018;28;20820;-74
2021/08/06 00:47:52;;;;;;;6.50;5.70;;;17.80;67.90;;;;;;5031494;28;20453;-75
2021/08/06 00:50:17;;;;;;;6.15;5.55;;;17.80;68.50;;;;;;5034810;28;20405;-76
2021/08/06 00:52:43;;;;;;;6.47;5.82;;;17.80;68.50;;;;;;5016136;28;20391;-77
2021/08/06 00:55:10;;;;;;;8.32;5.78;;;17.80;69.30;;;;;;5033182;28;20374;-76
2021/08/06 00:57:35;;;;;;;10.50;5.90;;;17.70;69.60;;;;;;5033012;28;20868;-76
2021/08/06 01:00:02;;;;;;;7.37;5.57;;;17.80;68.90;;;;;;5031449;28;20445;-74
2021/08/06 01:02:43;;;;;;;6.72;6.03;;;17.80;69.90;;;;;;5030809;28;20760;-77
2021/08/06 01:05:14;;;;;;;6.80;5.75;;;17.70;70.00;;;;;;5036343;28;20387;-76
2021/08/06 01:08:02;;;;;;;7.93;6.30;;;17.70;70.90;;;;;;5035299;28;20402;-76
2021/08/06 01:10:36;;;;;;;6.97;6.00;;;17.70;70.60;;;;;;5038944;28;20418;-75
2021/08/06 01:13:07;;;;;;;5.47;5.07;;;17.70;70.20;;;;;;5042815;28;20504;-75
2021/08/06 01:15:35;;;;;;;6.18;5.57;;;17.70;69.90;;;;;;5039792;28;20383;-75
2021/08/06 01:18:03;;;;;;;5.15;4.72;;;17.70;70.70;;;;;;5037389;28;20411;-75
2021/08/06 01:20:34;;;;;;;7.03;5.60;;;17.70;71.40;;;;;;5037057;28;20452;-73
2021/08/06 01:23:02;;;;;;;6.50;5.80;;;17.70;72.70;;;;;;5034037;28;20379;-73
2021/08/06 01:25:43;;;;;;;5.85;5.10;;;17.70;73.70;;;;;;5034353;28;20378;-73
2021/08/06 01:28:13;;;;;;;8.17;5.93;;;17.80;72.40;;;;;;5016004;28;20888;-72
2021/08/06 01:30:38;;;;;;;7.60;6.20;;;17.80;72.30;;;;;;5033980;28;20407;-74
2021/08/06 01:33:04;;;;;;;5.90;5.30;;;17.80;72.10;;;;;;5033728;28;20445;-75
2021/08/06 01:35:30;;;;;;;7.68;5.88;;;17.80;71.00;;;;;;5037110;28;20375;-73
2021/08/06 01:37:56;;;;;;;8.90;5.70;;;17.80;71.10;;;;;;5037863;28;20407;-74
2021/08/06 01:40:21;;;;;;;6.88;5.50;;;17.90;70.50;;;;;;5038140;28;20388;-74
2021/08/06 01:43:00;;;;;;;6.30;5.70;;;17.80;71.20;;;;;;5034651;28;20391;-73
2021/08/06 01:45:31;;;;;;;9.10;6.00;;;17.70;73.00;;;;;;5033612;28;20398;-73
2021/08/06 01:47:59;;;;;;;6.05;5.40;;;17.60;73.40;;;;;;5033381;28;20411;-73
2021/08/06 01:50:28;;;;;;;8.30;6.20;;;17.50;74.80;;;;;;5033232;28;20418;-74
2021/08/06 01:53:10;;;;;;;8.80;6.10;;;17.50;75.50;;;;;;5033759;28;20395;-74
2021/08/06 01:55:41;;;;;;;7.38;6.10;;;17.50;76.60;;;;;;5033289;28;20379;-75
2021/08/06 01:58:09;;;;;;;7.53;6.03;;;17.50;76.80;;;;;;5033082;28;20453;-74
2021/08/06 02:00:35;;;;;;;7.00;6.30;;;17.40;76.70;;;;;;5032885;28;20410;-73
2021/08/06 02:03:01;;;;;;;7.57;6.43;;;17.40;77.70;;;;;;5015209;28;20383;-74
2021/08/06 02:05:27;;;;;;;8.10;6.75;;;17.40;76.90;;;;;;5032689;28;20387;-74
2021/08/06 02:07:53;;;;;;;11.63;6.35;;;17.50;76.10;;;;;;5033034;28;20395;-74
2021/08/06 02:10:19;;;;;;;7.93;6.78;;;17.50;75.70;;;;;;5032813;28;20383;-74
2021/08/06 02:12:45;;;;;;;9.15;6.97;;;17.60;75.90;;;;;;5033445;28;20383;-74
2021/08/06 02:15:13;;;;;;;8.60;6.20;;;17.70;74.50;;;;;;5032589;28;20437;-74
2021/08/06 02:17:41;;;;;;;8.35;6.72;;;17.80;74.00;;;;;;5033021;28;20403;-74
2021/08/06 02:20:08;;;;;;;8.30;7.10;;;17.80;73.40;;;;;;5033326;28;20391;-75
2021/08/06 02:22:35;;;;;;;8.50;6.03;;;17.80;73.40;;;;;;5033507;28;20383;-75
2021/08/06 02:25:03;;;;;;;7.35;6.22;;;17.80;73.40;;;;;;5015774;28;20879;-74
2021/08/06 02:27:30;;;;;;;7.70;6.10;;;17.90;70.40;;;;;;5032778;28;20457;-75
2021/08/06 02:29:58;;;;;;;8.75;5.82;;;17.90;70.30;;;;;;5033020;28;20396;-75
2021/08/06 02:32:25;;;;;;;8.75;6.35;;;17.90;70.20;;;;;;5032632;28;20418;-74
2021/08/06 02:34:51;;;;;;;8.85;6.10;;;18.00;68.80;;;;;;5032477;28;20478;-76
2021/08/06 02:37:17;;;;;;;7.90;6.22;;;18.00;67.70;;;;;;5032521;28;20415;-74
2021/08/06 02:39:43;;;;;;;11.52;6.40;;;18.00;67.10;;;;;;5032976;28;20387;-76
2021/08/06 02:42:08;;;;;;;8.02;6.60;;;18.00;66.80;;;;;;5032478;28;20946;-74
2021/08/06 02:44:36;;;;;;;7.00;6.10;;;18.00;67.60;;;;;;5032553;28;20415;-75
2021/08/06 02:47:02;;;;;;;7.55;6.20;;;18.00;67.70;;;;;;5033050;28;20895;-75
2021/08/06 02:49:32;;;;;;;8.05;6.50;;;18.10;67.40;;;;;;5032528;28;20428;-76
2021/08/06 02:52:04;;;;;;;10.88;6.68;;;18.20;66.90;;;;;;5032569;28;20383;-76
2021/08/06 02:54:30;;;;;;;8.20;6.35;;;18.10;67.60;;;;;;5032562;28;20880;-76
2021/08/06 02:56:55;;;;;;;8.95;6.20;;;18.10;69.60;;;;;;5032853;28;20468;-75
2021/08/06 02:59:21;;;;;;;6.80;6.10;;;18.20;68.50;;;;;;5014057;28;20390;-75
2021/08/06 03:01:47;;;;;;;9.53;6.70;;;18.10;70.40;;;;;;5014364;28;20876;-76
2021/08/06 03:04:13;;;;;;;12.87;7.07;;;18.10;71.20;;;;;;5031893;28;20390;-73
2021/08/06 03:06:38;;;;;;;9.43;7.07;;;18.10;73.00;;;;;;5031900;28;20384;-75
2021/08/06 03:09:04;;;;;;;8.80;7.00;;;18.00;73.30;;;;;;5031453;28;20423;-75
2021/08/06 03:11:30;;;;;;;10.55;6.93;;;18.00;75.20;;;;;;5031572;28;20387;-74
2021/08/06 03:13:56;;;;;;;8.20;7.00;;;18.00;76.10;;;;;;5031694;28;20394;-75
2021/08/06 03:16:21;;;;;;;9.57;6.90;;;17.90;76.80;;;;;;5031648;28;20407;-74
2021/08/06 03:18:47;;;;;;;8.57;6.77;;;17.90;77.70;;;;;;5031452;28;20748;-75
2021/08/06 03:21:12;;;;;;;8.17;6.67;;;17.90;78.80;;;;;;5031216;28;20382;-75
2021/08/06 03:23:38;;;;;;;11.10;7.35;;;17.90;79.00;;;;;;5031472;28;20441;-75
2021/08/06 03:26:04;;;;;;;8.23;7.05;;;17.90;80.30;;;;;;5030841;28;20748;-74
2021/08/06 03:28:29;;;;;;;10.87;7.10;;;17.90;80.60;;;;;;5031260;28;20863;-76
2021/08/06 03:30:55;;;;;;;12.10;7.60;;;17.80;81.30;;;;;;5031145;28;20452;-75
2021/08/06 03:33:20;;;;;;;9.93;7.50;;;17.80;82.10;;;;;;5031269;28;20374;-74
2021/08/06 03:35:46;;;;;;;9.93;7.00;;;17.70;83.70;;;;;;5031234;28;20379;-75
2021/08/06 03:38:16;;;;;;;9.37;6.67;;;17.70;84.30;;;;;;5031006;28;20752;-74
2021/08/06 03:40:42;;;;;;;10.77;6.60;;;17.70;83.50;;;;;;5031352;28;20794;-74
2021/08/06 03:43:08;;;;;;;12.53;7.00;;;17.70;83.00;;;;;;5030991;28;20474;-76
2021/08/06 03:45:34;;;;;;;11.35;6.75;;;17.70;83.40;;;;;;5013317;28;20413;-75
2021/08/06 03:48:00;;;;;;;8.90;6.55;;;17.80;82.30;;;;;;5031397;28;20948;-75
2021/08/06 03:50:25;;;;;;;7.88;6.38;;;17.70;82.50;;;;;;5035597;28;20379;-75
2021/08/06 03:52:51;;;;;;;8.20;6.88;;;17.80;82.10;;;;;;5034649;28;20419;-75
2021/08/06 03:55:17;;;;;;;9.07;6.60;;;17.70;82.50;;;;;;5033993;28;20422;-75
2021/08/06 03:57:50;;;;;;;8.27;6.22;;;17.80;82.10;;;;;;5017547;28;20407;-75
2021/08/06 04:00:17;;;;;;;10.95;6.22;;;17.70;81.80;;;;;;5036798;28;20398;-75
2021/08/06 04:02:43;;;;;;;9.43;6.18;;;17.70;82.30;;;;;;5035217;28;20973;-74
2021/08/06 04:05:10;;;;;;;7.05;6.35;;;17.70;82.60;;;;;;5031491;28;20391;-76
2021/08/06 04:07:40;;;;;;;10.48;6.43;;;17.70;82.30;;;;;;5030602;28;20395;-76
2021/08/06 04:10:06;;;;;;;9.23;5.55;;;17.80;81.50;;;;;;5030882;28;20383;-75
2021/08/06 04:12:31;;;;;;;8.63;6.05;;;17.70;81.20;;;;;;5031309;28;20732;-75
2021/08/06 04:14:57;;;;;;;8.40;6.10;;;17.70;82.40;;;;;;5029395;28;20383;-75
2021/08/06 04:17:22;;;;;;;9.20;6.00;;;17.70;83.60;;;;;;5030740;28;20395;-75
2021/08/06 04:19:48;;;;;;;8.40;6.20;;;17.70;82.00;;;;;;5030962;28;20387;-75
2021/08/06 04:22:13;;;;;;;8.55;7.00;;;17.60;82.10;;;;;;5030895;28;20424;-74
2021/08/06 04:24:39;;;;;;;8.38;6.57;;;17.60;83.60;;;;;;5030894;28;20387;-76
2021/08/06 04:27:05;;;;;;;11.93;7.17;;;17.60;83.60;;;;;;5030355;28;20394;-77
2021/08/06 04:29:30;;;;;;;10.33;7.33;;;17.60;84.90;;;;;;5013282;28;20387;-76
2021/08/06 04:31:56;;;;;;;15.45;11.82;;;17.60;84.00;;;;;;5031449;28;20384;-76
2021/08/06 04:34:21;;;;;;;20.83;15.57;;;17.70;82.10;;;;;;5031175;28;20391;-76
2021/08/06 04:36:48;;;;;;;11.17;9.10;;;17.70;82.30;;;;;;5031626;28;20465;-77
2021/08/06 04:39:14;;;;;;;13.55;10.70;;;17.80;79.90;;;;;;5033927;28;20391;-76
2021/08/06 04:41:39;;;;;;;10.77;8.13;;;17.70;81.00;;;;;;5034782;28;20469;-77
2021/08/06 04:44:05;;;;;;;11.60;8.47;;;17.70;80.10;;;;;;5034710;28;20820;-76
2021/08/06 04:46:30;;;;;;;10.90;7.43;;;17.70;80.00;;;;;;5034553;28;20923;-77
2021/08/06 04:48:56;;;;;;;11.40;6.30;;;17.70;79.80;;;;;;5034434;28;20475;-76
2021/08/06 04:51:21;;;;;;;7.95;7.03;;;17.80;77.70;;;;;;5034610;28;20393;-74
2021/08/06 04:53:47;;;;;;;23.00;18.77;;;17.70;78.60;;;;;;5034788;28;20405;-76
2021/08/06 04:56:13;;;;;;;10.00;6.17;;;17.80;77.20;;;;;;5034550;28;20494;-77
2021/08/06 04:58:38;;;;;;;6.97;6.28;;;17.80;76.60;;;;;;5034767;28;20387;-76
2021/08/06 05:01:04;;;;;;;12.23;6.70;;;17.80;76.60;;;;;;5038269;28;20379;-75
2021/08/06 05:03:29;;;;;;;7.67;6.30;;;17.80;77.70;;;;;;5048491;28;20391;-75
2021/08/06 05:05:55;;;;;;;10.30;5.77;;;17.90;75.40;;;;;;5051700;28;20387;-76
2021/08/06 05:08:20;;;;;;;11.48;6.30;;;17.80;76.30;;;;;;5035263;28;20391;-76
2021/08/06 05:10:46;;;;;;;8.80;5.13;;;17.80;75.90;;;;;;5034948;28;20387;-76
2021/08/06 05:13:11;;;;;;;7.30;5.83;;;17.80;74.60;;;;;;5034499;28;20376;-76
2021/08/06 05:15:37;;;;;;;6.40;5.30;;;17.90;75.70;;;;;;5034291;28;20391;-76
2021/08/06 05:18:02;;;;;;;10.90;6.00;;;17.90;74.50;;;;;;5033787;28;20460;-77
2021/08/06 05:20:28;;;;;;;7.40;5.73;;;18.00;74.50;;;;;;5016501;28;20375;-75
2021/08/06 05:22:54;;;;;;;7.85;5.47;;;18.00;74.80;;;;;;5034585;28;20387;-75
2021/08/06 05:25:19;;;;;;;6.45;5.18;;;18.00;72.90;;;;;;5016090;28;20474;-76
2021/08/06 05:27:45;;;;;;;7.30;5.50;;;18.10;72.00;;;;;;5033574;28;20856;-76
2021/08/06 05:30:11;;;;;;;8.67;5.70;;;18.10;71.80;;;;;;5033959;28;20488;-75
2021/08/06 05:32:37;;;;;;;5.80;5.30;;;18.20;71.30;;;;;;5016104;28;20414;-76
2021/08/06 05:35:03;;;;;;;7.53;5.40;;;18.30;70.40;;;;;;5033895;28;20379;-76
2021/08/06 05:37:28;;;;;;;6.07;5.03;;;18.30;70.20;;;;;;5034524;28;20407;-76
2021/08/06 05:39:54;;;;;;;7.00;5.77;;;18.40;69.90;;;;;;5034923;28;20390;-78
2021/08/06 05:42:20;;;;;;;8.63;5.10;;;18.40;69.60;;;;;;5034114;28;20379;-75
2021/08/06 05:44:45;;;;;;;7.00;5.40;;;18.40;68.20;;;;;;5033924;28;20414;-76
2021/08/06 05:47:11;;;;;;;8.20;5.85;;;18.40;68.50;;;;;;5033724;28;20697;-76
2021/08/06 05:49:36;;;;;;;7.10;5.67;;;18.40;67.70;;;;;;5033456;28;20383;-76
2021/08/06 05:52:03;;;;;;;6.10;5.50;;;18.50;65.90;;;;;;5033816;28;20395;-77
2021/08/06 05:54:28;;;;;;;7.53;5.78;;;18.50;65.60;;;;;;5033851;28;20482;-77
2021/08/06 05:56:54;;;;;;;10.98;6.70;;;18.50;65.10;;;;;;5034793;28;20490;-76
2021/08/06 05:59:19;;;;;;;6.10;5.55;;;18.70;65.80;;;;;;5037633;28;20403;-76
2021/08/06 06:01:45;;;;;;;8.10;6.00;;;18.70;64.00;;;;;;5038252;28;20379;-76
2021/08/06 06:04:10;;;;;;;8.65;6.07;;;18.80;62.30;;;;;;5037349;28;20444;-76
2021/08/06 06:06:36;;;;;;;7.93;6.50;;;19.00;61.10;;;;;;5034751;28;20384;-77
2021/08/06 06:09:01;;;;;;;6.10;5.50;;;19.20;60.30;;;;;;5035638;28;20390;-76
2021/08/06 06:11:27;;;;;;;7.50;5.60;;;19.30;58.90;;;;;;5034257;28;20379;-76
2021/08/06 06:13:52;;;;;;;10.90;5.60;;;19.40;56.60;;;;;;5033898;28;20725;-76
2021/08/06 06:16:18;;;;;;;8.73;5.80;;;19.50;56.10;;;;;;5033955;28;20761;-76
2021/08/06 06:18:44;;;;;;;7.65;6.30;;;19.50;56.00;;;;;;5036299;28;20410;-76
2021/08/06 06:21:10;;;;;;;9.50;5.90;;;19.40;55.40;;;;;;5035564;28;20387;-76
2021/08/06 06:23:37;;;;;;;9.50;6.28;;;19.30;57.80;;;;;;5034816;28;20391;-76
2021/08/06 06:26:02;;;;;;;7.65;5.97;;;19.20;59.40;;;;;;5034317;28;20562;-75
2021/08/06 06:28:28;;;;;;;8.50;6.20;;;19.30;60.70;;;;;;5035410;28;20412;-75
2021/08/06 06:30:53;;;;;;;5.60;5.00;;;19.30;61.00;;;;;;5034596;28;20802;-75
2021/08/06 06:33:19;;;;;;;6.15;5.50;;;19.30;59.00;;;;;;5016981;28;20387;-76
2021/08/06 06:35:44;;;;;;;9.00;6.17;;;19.30;60.70;;;;;;5033993;28;20390;-77
2021/08/06 06:38:14;;;;;;;9.40;5.90;;;19.40;60.60;;;;;;5034031;28;20485;-76
2021/08/06 06:40:39;;;;;;;7.97;5.60;;;19.30;60.30;;;;;;5034101;28;20433;-76
2021/08/06 06:43:05;;;;;;;7.37;5.30;;;19.20;62.40;;;;;;5033120;28;20399;-75
2021/08/06 06:45:31;;;;;;;6.90;5.20;;;19.10;64.00;;;;;;5033081;28;20383;-75
2021/08/06 06:47:56;;;;;;;6.80;5.15;;;19.10;63.70;;;;;;5032764;28;20419;-75
2021/08/06 06:50:25;;;;;;;6.87;5.30;;;19.00;64.20;;;;;;5016219;28;20895;-75
2021/08/06 06:52:51;;;;;;;8.15;4.97;;;19.00;64.10;;;;;;5033020;28;20409;-75
2021/08/06 06:55:17;;;;;;;5.80;4.85;;;19.20;64.30;;;;;;5015210;28;21409;-75
2021/08/06 06:57:54;;;;;;;6.27;4.70;;;19.40;62.40;;;;;;5034027;28;20965;-77
2021/08/06 07:00:31;;;;;;;5.55;4.15;;;19.60;59.30;;;;;;5031056;28;20383;-76
2021/08/06 07:02:57;;;;;;;6.00;4.30;;;19.80;54.70;;;;;;5031845;28;20372;-74
2021/08/06 07:05:23;;;;;;;4.35;3.95;;;20.10;54.30;;;;;;5031562;28;20439;-74
2021/08/06 07:07:49;;;;;;;4.63;3.83;;;20.30;52.30;;;;;;5031684;28;20422;-75
2021/08/06 07:10:15;;;;;;;6.80;4.70;;;20.40;52.30;;;;;;5031694;28;20395;-75
2021/08/06 07:12:42;;;;;;;7.53;4.30;;;20.50;53.00;;;;;;5013993;28;20408;-75
2021/08/06 07:15:10;;;;;;;6.50;4.50;;;20.50;51.40;;;;;;5031257;28;20383;-75
2021/08/06 07:17:37;;;;;;;8.35;4.13;;;20.50;51.50;;;;;;5031537;28;20430;-75
2021/08/06 07:20:04;;;;;;;7.68;4.43;;;20.50;51.50;;;;;;5031804;28;20452;-75
2021/08/06 07:22:30;;;;;;;7.13;4.45;;;20.70;48.90;;;;;;5031653;28;20409;-76
2021/08/06 07:24:56;;;;;;;8.15;5.03;;;20.90;49.50;;;;;;5031758;28;20498;-76
2021/08/06 07:27:22;;;;;;;6.70;5.03;;;20.90;46.80;;;;;;5031191;28;20395;-76
2021/08/06 07:29:47;;;;;;;6.07;5.10;;;20.80;47.60;;;;;;5031776;28;20395;-76
2021/08/06 07:32:13;;;;;;;7.30;4.97;;;20.90;47.70;;;;;;5031717;28;20780;-75
2021/08/06 07:34:39;;;;;;;6.13;4.10;;;20.90;47.10;;;;;;5032351;28;20402;-76
2021/08/06 07:37:05;;;;;;;4.70;4.30;;;21.00;46.60;;;;;;5011250;28;20473;-74
2021/08/06 07:39:30;;;;;;;4.50;4.10;;;21.10;46.60;;;;;;5037306;28;20423;-76
2021/08/06 07:41:56;;;;;;;5.40;4.20;;;21.20;45.10;;;;;;5032587;28;20394;-75
2021/08/06 07:44:22;;;;;;;6.40;4.30;;;21.20;45.30;;;;;;5025064;28;20849;-76
2021/08/06 07:46:47;;;;;;;7.97;4.10;;;21.20;44.80;;;;;;5021674;28;20708;-76
2021/08/06 07:49:13;;;;;;;3.90;3.50;;;21.10;44.50;;;;;;5016507;28;20399;-76
2021/08/06 07:51:38;;;;;;;5.93;3.58;;;21.30;43.90;;;;;;5035728;28;20517;-74
2021/08/06 07:54:05;;;;;;;5.70;3.60;;;21.50;43.10;;;;;;5015488;28;20409;-76
2021/08/06 07:56:30;;;;;;;7.28;4.65;;;21.80;42.50;;;;;;5024161;28;20887;-76
2021/08/06 07:58:56;;;;;;;5.47;3.50;;;22.10;39.30;;;;;;5041754;28;20388;-76
2021/08/06 08:01:22;;;;;;;5.80;3.00;;;22.50;37.90;;;;;;5030607;28;20405;-75
2021/08/06 08:03:48;;;;;;;6.05;3.13;;;22.80;37.00;;;;;;5021339;28;20474;-75
2021/08/06 08:06:14;;;;;;;5.17;3.60;;;22.60;37.10;;;;;;5029849;28;20482;-76
2021/08/06 08:08:41;;;;;;;4.22;3.30;;;22.20;39.20;;;;;;5030172;28;20452;-73
2021/08/06 08:11:07;;;;;;;4.18;3.20;;;21.70;42.20;;;;;;5030421;28;20395;-75
2021/08/06 08:13:32;;;;;;;5.50;3.42;;;21.50;44.70;;;;;;5013141;28;20513;-76
2021/08/06 08:15:59;;;;;;;5.70;2.80;;;21.20;45.60;;;;;;5029405;28;20417;-75
2021/08/06 08:18:25;;;;;;;5.07;3.33;;;20.90;45.50;;;;;;5023209;28;20892;-77
2021/08/06 08:20:50;;;;;;;2.80;2.00;;;21.00;44.80;;;;;;5030994;28;20513;-76
2021/08/06 08:23:17;;;;;;;2.53;1.60;;;21.10;41.60;;;;;;5030726;28;20406;-76
2021/08/06 08:25:43;;;;;;;7.32;2.00;;;21.40;38.20;;;;;;5030583;28;20448;-75
2021/08/06 08:28:09;;;;;;;3.00;1.50;;;21.60;36.90;;;;;;5030720;28;20405;-75
2021/08/06 08:30:35;;;;;;;4.05;1.50;;;21.70;35.60;;;;;;5056421;22;20427;-71
2021/08/06 08:33:01;;;;;;;3.40;1.80;;;21.70;35.60;;;;;;5069678;28;20402;-71
2021/08/06 08:35:27;;;;;;;4.18;2.10;;;21.70;36.00;;;;;;5070169;28;20364;-70
2021/08/06 08:37:52;;;;;;;4.67;1.80;;;21.80;37.80;;;;;;5069152;28;20407;-70
2021/08/06 08:40:18;;;;;;;3.93;2.10;;;21.90;36.40;;;;;;5064190;28;20542;-71
2021/08/06 08:42:49;;;;;;;3.60;1.55;;;21.80;36.90;;;;;;5049711;28;20462;-71
2021/08/06 08:45:15;;;;;;;2.80;1.80;;;21.70;35.80;;;;;;5064333;28;20380;-71
2021/08/06 08:47:44;;;;;;;4.28;2.00;;;21.60;36.30;;;;;;5059788;28;20393;-71
2021/08/06 08:50:10;;;;;;;4.53;2.40;;;21.60;36.20;;;;;;5050054;28;20841;-71
2021/08/06 08:52:35;;;;;;;3.35;2.10;;;21.70;35.40;;;;;;5049701;28;20401;-73
2021/08/06 08:55:03;;;;;;;3.03;2.22;;;21.60;35.70;;;;;;5049726;28;20388;-76
2021/08/06 08:57:28;;;;;;;3.38;2.25;;;21.50;36.40;;;;;;5049494;28;20409;-74
2021/08/06 08:59:55;;;;;;;4.45;2.30;;;21.60;37.30;;;;;;5062855;28;20418;-71
2021/08/06 09:02:22;;;;;;;3.00;2.40;;;21.60;36.40;;;;;;5056548;28;20451;-71
2021/08/06 09:04:48;;;;;;;4.13;2.23;;;21.60;36.80;;;;;;5049484;28;20374;-71
2021/08/06 09:07:30;;;;;;;4.15;2.30;;;21.70;36.70;;;;;;5048946;28;20459;-71
2021/08/06 09:10:28;;;;;;;4.80;2.20;;;21.80;36.00;;;;;;5049410;28;20395;-72
2021/08/06 09:13:03;;;;;;;4.13;3.13;;;21.90;35.90;;;;;;5049465;28;20789;-73
2021/08/06 09:15:44;;;;;;;5.32;2.85;;;22.10;36.20;;;;;;5048162;28;20393;-71
2021/08/06 09:18:30;;;;;;;2.70;2.42;;;22.10;35.90;;;;;;5048662;28;20401;-73
2021/08/06 09:21:02;;;;;;;2.58;2.33;;;21.80;35.60;;;;;;5049511;28;20803;-73
2021/08/06 09:23:44;;;;;;;2.80;2.40;;;21.70;36.10;;;;;;5049765;28;20889;-72
2021/08/06 09:26:32;;;;;;;4.97;2.13;;;21.90;36.30;;;;;;5051158;28;20385;-72
2021/08/06 09:29:03;;;;;;;3.78;2.20;;;22.00;34.30;;;;;;5043004;28;20397;-74
2021/08/06 09:31:30;;;;;;;4.70;3.10;;;22.10;34.40;;;;;;5047851;28;20409;-72
2021/08/06 09:34:17;;;;;;;3.70;2.40;;;22.10;34.40;;;;;;5060681;28;20387;-71
2021/08/06 09:37:01;;;;;;;3.28;2.60;;;22.20;33.10;;;;;;5052567;28;20489;-72
2021/08/06 09:39:32;;;;;;;6.10;2.70;;;22.50;32.40;;;;;;5051414;28;20393;-72
2021/08/06 09:41:57;;;;;;;4.03;2.70;;;22.60;32.30;;;;;;5052413;28;20382;-72
2021/08/06 09:44:26;;;;;;;7.17;2.90;;;22.70;31.70;;;;;;5059810;28;20478;-72
2021/08/06 09:46:52;;;;;;;3.92;2.88;;;22.90;31.50;;;;;;5072449;28;20384;-72
2021/08/06 09:49:19;;;;;;;4.88;2.72;;;22.60;31.50;;;;;;5060364;28;20429;-72
2021/08/06 09:51:48;;;;;;;3.78;2.80;;;22.70;31.70;;;;;;5052293;28;20732;-72
2021/08/06 09:54:33;;;;;;;4.25;2.90;;;22.60;32.10;;;;;;5051961;28;20471;-72
2021/08/06 09:57:11;;;;;;;5.50;2.65;;;22.60;31.50;;;;;;5051572;28;20401;-72
2021/08/06 09:59:38;;;;;;;3.78;2.50;;;22.60;31.40;;;;;;5055135;28;20398;-71
2021/08/06 10:02:09;;;;;;;3.67;2.70;;;22.90;30.50;;;;;;5052051;28;20384;-71
2021/08/06 10:04:35;;;;;;;5.47;2.50;;;23.00;29.60;;;;;;5052097;28;20397;-71
2021/08/06 10:07:01;;;;;;;3.63;2.67;;;23.10;29.10;;;;;;5051656;28;20516;-72
2021/08/06 10:09:27;;;;;;;3.60;2.60;;;23.30;29.70;;;;;;5059250;28;20806;-70
2021/08/06 10:11:52;;;;;;;3.80;2.60;;;23.50;27.60;;;;;;5064624;28;20543;-72
2021/08/06 10:14:18;;;;;;;6.07;2.83;;;23.60;28.10;;;;;;5063450;28;20445;-70
2021/08/06 10:16:45;;;;;;;3.50;2.65;;;23.90;28.20;;;;;;5055114;28;20409;-72
2021/08/06 10:19:13;;;;;;;5.63;2.83;;;24.20;28.80;;;;;;5051499;28;20466;-71
2021/08/06 10:21:40;;;;;;;5.60;3.10;;;24.60;26.40;;;;;;5051403;28;20437;-72
2021/08/06 10:24:06;;;;;;;5.82;3.08;;;24.80;25.60;;;;;;5051659;28;20869;-72
2021/08/06 10:26:33;;;;;;;3.80;2.90;;;24.60;25.10;;;;;;5051386;28;20401;-72
2021/08/06 10:28:59;;;;;;;6.45;3.00;;;24.60;25.30;;;;;;5051139;28;20488;-72
2021/08/06 10:31:24;;;;;;;3.70;2.95;;;24.60;25.40;;;;;;5051506;28;20480;-73
2021/08/06 10:34:13;;;;;;;6.07;2.90;;;24.60;26.10;;;;;;5051432;28;20735;-73
2021/08/06 10:36:47;;;;;;;6.03;3.20;;;24.70;26.30;;;;;;5051821;28;20406;-73
2021/08/06 10:39:30;;;;;;;5.10;3.20;;;24.70;25.40;;;;;;5051544;28;20466;-71
2021/08/06 10:41:57;;;;;;;6.10;3.30;;;24.30;25.60;;;;;;5051704;28;20411;-72
2021/08/06 10:44:22;;;;;;;5.70;2.75;;;24.10;27.00;;;;;;5051188;28;20448;-72
2021/08/06 10:47:04;;;;;;;7.57;2.97;;;23.90;26.20;;;;;;5051814;28;20397;-72
2021/08/06 10:49:31;;;;;;;5.53;3.55;;;23.60;27.80;;;;;;5051577;28;20417;-72
2021/08/06 10:52:18;;;;;;;4.97;2.70;;;23.80;28.30;;;;;;5051655;28;20381;-72
2021/08/06 10:54:45;;;;;;;5.47;3.17;;;23.50;28.50;;;;;;5050721;28;20484;-72
2021/08/06 10:57:38;;;;;;;5.90;3.28;;;22.90;30.00;;;;;;5060375;28;20411;-71
2021/08/06 11:00:05;;;;;;;4.53;2.80;;;22.50;32.10;;;;;;5048835;28;20735;-72
2021/08/06 11:02:44;;;;;;;2.60;2.40;;;22.20;32.80;;;;;;5060836;28;20692;-72
2021/08/06 11:05:37;;;;;;;2.63;2.40;;;21.80;34.50;;;;;;5052011;28;20790;-72
2021/08/06 11:08:41;;;;;;;3.67;1.90;;;21.40;34.00;;;;;;5057466;28;20956;-72
2021/08/06 11:11:07;;;;;;;4.38;2.38;;;21.10;34.90;;;;;;5051101;28;20394;-72
2021/08/06 11:13:32;;;;;;;8.05;2.55;;;20.90;36.50;;;;;;5034725;28;20383;-72
2021/08/06 11:16:09;;;;;;;3.03;2.20;;;21.00;37.70;;;;;;5030525;28;20459;-72
2021/08/06 11:18:40;;;;;;;3.28;2.50;;;21.10;36.50;;;;;;5030412;28;20391;-71
2021/08/06 11:21:06;;;;;;;6.25;2.55;;;21.20;36.50;;;;;;5034125;28;20386;-72
2021/08/06 11:23:32;;;;;;;7.60;2.50;;;21.60;36.60;;;;;;5050616;28;20382;-71
2021/08/06 11:26:06;;;;;;;5.20;2.60;;;21.90;36.30;;;;;;5049957;28;20914;-73
2021/08/06 11:28:32;;;;;;;2.40;2.20;;;22.40;34.70;;;;;;5049952;28;20474;-72
2021/08/06 11:30:57;;;;;;;5.90;2.78;;;22.80;32.40;;;;;;5049664;28;20941;-71
2021/08/06 11:33:23;;;;;;;4.00;2.40;;;22.80;32.60;;;;;;5049740;28;20444;-72
2021/08/06 11:35:48;;;;;;;4.23;2.50;;;22.80;31.70;;;;;;5050175;28;20393;-73
2021/08/06 11:38:16;;;;;;;3.40;2.42;;;23.00;32.50;;;;;;5050093;28;20408;-71
2021/08/06 11:40:44;;;;;;;10.75;3.90;;;23.30;31.90;;;;;;5049706;28;20874;-72
2021/08/06 11:43:24;;;;;;;3.35;2.35;;;23.60;31.00;;;;;;5049948;28;20380;-72
2021/08/06 11:45:52;;;;;;;3.80;2.40;;;23.90;28.10;;;;;;5067932;28;20467;-71
2021/08/06 11:48:19;;;;;;;6.03;2.78;;;24.00;28.30;;;;;;5049378;28;20496;-72
2021/08/06 11:50:55;;;;;;;11.18;2.90;;;24.00;27.50;;;;;;5049961;28;20444;-72
2021/08/06 11:53:23;;;;;;;3.67;2.45;;;24.10;27.40;;;;;;5047757;28;20414;-72
2021/08/06 11:55:51;;;;;;;3.63;2.53;;;24.30;26.20;;;;;;5056305;28;20397;-71
2021/08/06 11:58:40;;;;;;;4.80;2.45;;;24.30;25.30;;;;;;5054706;28;20404;-72
2021/08/06 12:01:07;;;;;;;3.58;2.10;;;24.10;26.00;;;;;;5053927;28;20404;-72
2021/08/06 12:04:02;;;;;;;3.70;1.77;;;24.40;25.40;;;;;;5047963;28;20399;-71
2021/08/06 12:06:29;;;;;;;3.70;1.90;;;24.80;25.30;;;;;;5036356;28;20875;-72
2021/08/06 12:08:57;;;;;;;3.33;2.00;;;24.90;23.90;;;;;;5048883;28;20417;-71
2021/08/06 12:11:25;;;;;;;2.80;2.20;;;25.00;22.30;;;;;;5049154;28;20501;-71
2021/08/06 12:13:57;;;;;;;2.83;2.03;;;25.10;22.10;;;;;;5046388;28;20414;-72
2021/08/06 12:16:38;;;;;;;3.28;2.40;;;25.40;22.10;;;;;;5048184;28;20901;-72
2021/08/06 12:19:04;;;;;;;10.80;2.60;;;25.40;21.70;;;;;;5049188;28;20808;-72
2021/08/06 12:21:39;;;;;;;3.30;2.08;;;25.50;21.30;;;;;;5048150;28;20389;-71
2021/08/06 12:24:21;;;;;;;2.38;1.60;;;25.10;20.90;;;;;;5048943;28;20385;-72
2021/08/06 12:26:56;;;;;;;5.80;1.80;;;24.90;21.90;;;;;;5048717;28;20407;-72
2021/08/06 12:29:30;;;;;;;6.35;2.40;;;24.80;21.90;;;;;;5032238;28;20393;-72
2021/08/06 12:32:04;;;;;;;3.30;1.80;;;24.90;20.30;;;;;;5049009;28;20420;-71
2021/08/06 12:34:31;;;;;;;5.00;1.90;;;24.80;21.30;;;;;;5049270;28;20418;-71
2021/08/06 12:37:06;;;;;;;3.38;1.88;;;24.60;19.40;;;;;;5048932;28;20412;-70
2021/08/06 12:39:34;;;;;;;3.92;1.80;;;24.40;20.30;;;;;;5051952;28;20396;-72
2021/08/06 12:42:19;;;;;;;3.97;2.10;;;24.20;20.50;;;;;;5048841;28;20412;-73
2021/08/06 12:45:00;;;;;;;2.20;1.88;;;24.10;21.60;;;;;;5048749;28;20417;-70
2021/08/06 12:47:26;;;;;;;3.25;2.22;;;24.00;21.30;;;;;;5048774;28;20491;-72
2021/08/06 12:49:55;;;;;;;8.02;2.20;;;24.20;20.70;;;;;;5048846;28;20473;-73
2021/08/06 12:52:23;;;;;;;2.58;2.00;;;24.30;20.70;;;;;;5048572;28;20431;-71